Time;durP1;ratioP1;P1;durP2;ratioP2;P2;SDS_P1;SDS_P2;PMS_P1;PMS_P2;Temp;Humidity;BMP_temperature;BMP_pressure;BME280_temperature;BME280_humidity;BME280_pressure;Samples;Min_cycle;Max_cycle;Signal;HPM_P1;HPM_P2
2022/09/17 00:00:43;;;;;;;29.30;22.77;;;;;;;13.39;94.75;99974.97;1771073;80;20910;-89
2022/09/17 00:03:12;;;;;;;29.15;23.02;;;;;;;13.37;94.67;99981.67;1772306;80;20952;-87
2022/09/17 00:05:38;;;;;;;25.95;21.68;;;;;;;13.36;94.79;99986.59;1771997;81;20897;-88
2022/09/17 00:08:10;;;;;;;33.42;21.75;;;;;;;13.34;94.87;99979.76;1771157;81;20887;-90
2022/09/17 00:10:41;;;;;;;30.05;21.82;;;;;;;13.33;95.01;99981.56;1771188;81;21208;-91
2022/09/17 00:13:09;;;;;;;31.02;22.80;;;;;;;13.30;95.15;99977.87;1770990;81;21355;-92
2022/09/17 00:15:43;;;;;;;34.23;24.10;;;;;;;13.31;95.25;99980.84;1771406;81;20925;-92
2022/09/17 00:18:12;;;;;;;32.70;23.65;;;;;;;13.30;95.29;99975.73;1771650;80;20996;-89
2022/09/17 00:20:40;;;;;;;27.25;21.48;;;;;;;13.29;95.50;99976.19;1768308;80;20864;-87
2022/09/17 00:23:07;;;;;;;29.27;22.48;;;;;;;13.27;95.59;99968.40;1764830;80;21086;-92
2022/09/17 00:25:41;;;;;;;27.45;21.75;;;;;;;13.27;95.50;99969.72;1763780;81;21348;-91
2022/09/17 00:28:29;;;;;;;31.97;23.60;;;;;;;13.24;95.60;99968.63;1737867;82;20901;-91
2022/09/17 00:30:59;;;;;;;35.43;23.18;;;;;;;13.25;95.78;99971.64;1737195;82;20912;-91
2022/09/17 00:33:42;;;;;;;30.10;22.58;;;;;;;13.25;96.12;99980.85;1737892;82;20912;-89
2022/09/17 00:36:24;;;;;;;30.17;21.75;;;;;;;13.25;96.06;99980.85;1737377;82;21344;-91
2022/09/17 00:38:57;;;;;;;26.75;21.65;;;;;;;13.24;95.87;99978.33;1737749;82;21030;-90
2022/09/17 00:41:26;;;;;;;29.07;22.67;;;;;;;13.24;95.70;99977.02;1739714;82;20944;-87
2022/09/17 00:43:56;;;;;;;25.92;20.20;;;;;;;13.22;95.46;99987.67;1740120;82;20968;-87
2022/09/17 00:46:40;;;;;;;30.05;22.65;;;;;;;13.22;95.29;99982.89;1740139;82;21015;-88
2022/09/17 00:49:15;;;;;;;27.00;20.60;;;;;;;13.20;95.06;99986.13;1740701;82;21113;-90
2022/09/17 00:51:50;;;;;;;26.65;20.85;;;;;;;13.17;94.78;99992.48;1740989;82;20948;-90
2022/09/17 00:54:17;;;;;;;27.52;21.75;;;;;;;13.15;94.57;99994.39;1734560;81;20909;-93
2022/09/17 00:56:44;;;;;;;26.35;21.35;;;;;;;13.11;94.52;99989.50;1717204;82;20940;-90
2022/09/17 00:59:11;;;;;;;27.87;20.72;;;;;;;13.08;94.47;99990.59;1741118;82;21078;-90
2022/09/17 01:01:38;;;;;;;31.00;22.70;;;;;;;13.06;94.65;99987.25;1741111;82;21116;-90
2022/09/17 01:04:04;;;;;;;28.65;21.90;;;;;;;13.05;94.74;99986.91;1740947;81;20968;-90
2022/09/17 01:06:49;;;;;;;25.75;19.73;;;;;;;13.04;94.71;99992.63;1740681;81;20929;-91
2022/09/17 01:09:31;;;;;;;30.57;21.75;;;;;;;13.02;94.62;99986.64;1720233;81;28163;-91
2022/09/17 01:12:21;;;;;;;28.40;21.68;;;;;;;13.00;94.58;99993.00;1738533;81;20937;-91
2022/09/17 01:15:23;;;;;;;29.67;21.77;;;;;;;12.98;94.54;99998.41;1740359;81;21209;-92
2022/09/17 01:18:34;;;;;;;26.00;19.82;;;;;;;12.95;94.66;99994.68;1739921;81;20976;-91
2022/09/17 01:21:26;;;;;;;31.40;21.70;;;;;;;12.94;94.57;100010.59;1727216;82;21047;-91
2022/09/17 01:24:21;;;;;;;27.93;21.15;;;;;;;12.89;94.29;100010.95;1754153;80;20977;-91
2022/09/17 01:27:18;;;;;;;29.90;21.40;;;;;;;12.85;94.17;100015.64;1753824;81;26410;-91
2022/09/17 01:30:05;;;;;;;29.82;19.92;;;;;;;12.83;94.18;100011.47;1753518;80;21143;-92
2022/09/17 01:33:01;;;;;;;28.05;21.40;;;;;;;12.77;94.18;100014.09;1753204;81;20898;-92
2022/09/17 01:35:34;;;;;;;27.05;20.85;;;;;;;12.73;94.12;100021.03;1753746;80;20925;-92
2022/09/17 01:38:18;;;;;;;37.40;21.85;;;;;;;12.70;94.15;100022.11;1753931;81;20957;-92
2022/09/17 01:41:06;;;;;;;;;;;;;;;12.67;94.15;100018.39;1755792;80;20835;-91
2022/09/17 01:43:55;;;;;;;27.82;20.05;;;;;;;12.64;94.14;100017.33;1754034;80;21134;-90
2022/09/17 01:46:36;;;;;;;29.90;24.80;;;;;;;12.61;94.28;100014.95;1754066;80;20855;-92
2022/09/17 01:49:05;;;;;;;35.65;23.35;;;;;;;12.58;94.64;100023.06;1744702;81;20926;-92
2022/09/17 01:51:38;;;;;;;29.15;21.82;;;;;;;12.58;95.02;100018.66;1753605;81;20914;-91
2022/09/17 01:54:15;;;;;;;29.27;22.20;;;;;;;12.56;95.00;100015.31;1753522;80;21423;-92
2022/09/17 01:57:00;;;;;;;29.57;23.42;;;;;;;12.55;94.88;100008.36;1753505;80;21287;-92
2022/09/17 01:59:54;;;;;;;30.45;22.20;;;;;;;12.55;94.92;100014.94;1754262;80;20890;-91
2022/09/17 02:02:33;;;;;;;29.90;22.67;;;;;;;12.55;95.26;100017.56;1753888;81;20974;-90
2022/09/17 02:05:08;;;;;;;28.27;21.70;;;;;;;12.56;95.33;100008.73;1753601;80;20938;-91
2022/09/17 02:07:43;;;;;;;28.85;21.30;;;;;;;12.57;95.30;100008.25;1753346;80;20886;-92
2022/09/17 02:10:19;;;;;;;26.65;22.02;;;;;;;12.57;95.30;100016.97;1753578;80;21243;-92
2022/09/17 02:12:53;;;;;;;30.25;22.35;;;;;;;12.57;95.23;100016.14;1753401;80;20886;-91
2022/09/17 02:15:28;;;;;;;35.40;23.67;;;;;;;12.56;95.05;100020.56;1753352;80;20997;-92
2022/09/17 02:18:09;;;;;;;32.78;24.90;;;;;;;12.54;94.83;100022.48;1754204;80;20854;-90
2022/09/17 02:20:42;;;;;;;29.35;22.82;;;;;;;12.53;94.67;100023.91;1757081;80;20890;-92
2022/09/17 02:23:19;;;;;;;30.80;24.23;;;;;;;12.50;94.45;100023.67;1737231;82;21274;-92
2022/09/17 02:26:09;;;;;;;31.55;22.07;;;;;;;12.48;94.33;100023.44;1737860;82;20925;-92
2022/09/17 02:28:49;;;;;;;28.80;21.90;;;;;;;12.45;94.16;100021.88;1737893;82;20932;-92
2022/09/17 02:31:15;;;;;;;29.77;23.20;;;;;;;12.43;94.07;100025.94;1713903;82;20992;-90
2022/09/17 02:33:46;;;;;;;30.70;23.45;;;;;;;12.40;94.04;100022.20;1738210;82;21000;-90
2022/09/17 02:36:12;;;;;;;32.88;23.15;;;;;;;12.39;94.01;100023.66;1718058;82;21266;-91
2022/09/17 02:38:42;;;;;;;28.50;21.73;;;;;;;12.37;93.99;100022.94;1739721;81;20884;-92
2022/09/17 02:41:21;;;;;;;35.63;23.70;;;;;;;12.36;93.94;100026.52;1738106;82;20971;-92
2022/09/17 02:44:10;;;;;;;32.30;23.52;;;;;;;12.34;94.02;100026.66;1737805;82;20968;-92
2022/09/17 02:47:05;;;;;;;30.97;24.37;;;;;;;12.33;94.24;100023.64;1737689;82;20857;-92
2022/09/17 02:49:55;;;;;;;33.60;24.45;;;;;;;12.32;94.27;100030.36;1738288;82;23769;-91
2022/09/17 02:52:54;;;;;;;30.77;24.57;;;;;;;12.31;94.60;100028.19;1738570;82;20956;-92
2022/09/17 02:55:41;;;;;;;30.72;25.97;;;;;;;12.31;94.67;100027.35;1737958;82;20888;-91
2022/09/17 02:58:46;;;;;;;38.80;29.00;;;;;;;12.30;94.74;100034.89;1737996;82;20956;-91
2022/09/17 03:01:40;;;;;;;38.98;28.23;;;;;;;12.30;94.83;100032.27;1738045;82;20960;-91
2022/09/17 03:04:09;;;;;;;40.10;30.10;;;;;;;12.30;94.92;100029.16;1731229;82;21246;-90
2022/09/17 03:06:37;;;;;;;40.40;29.77;;;;;;;12.28;94.99;100031.06;1764111;80;20977;-91
2022/09/17 03:09:05;;;;;;;36.83;29.25;;;;;;;12.29;95.04;100034.03;1764735;80;20953;-92
2022/09/17 03:11:32;;;;;;;35.13;27.80;;;;;;;12.28;94.84;100041.58;1764561;81;20949;-88
2022/09/17 03:13:59;;;;;;;37.58;28.87;;;;;;;12.27;94.67;100029.85;1765874;80;20858;-88
2022/09/17 03:16:25;;;;;;;39.13;29.70;;;;;;;12.26;94.53;100026.39;1765552;80;21935;-91
2022/09/17 03:18:54;;;;;;;31.48;27.67;;;;;;;12.24;94.58;100038.33;1764223;80;20969;-91
2022/09/17 03:21:22;;;;;;;40.58;29.98;;;;;;;12.24;94.72;100036.19;1764385;80;21481;-90
2022/09/17 03:23:48;;;;;;;38.48;29.98;;;;;;;12.25;94.78;100033.94;1738939;82;20880;-89
2022/09/17 03:26:16;;;;;;;40.40;29.95;;;;;;;12.26;94.73;100032.13;1739166;82;20900;-91
2022/09/17 03:28:44;;;;;;;34.15;28.67;;;;;;;12.25;94.68;100031.30;1739070;82;21247;-91
2022/09/17 03:31:10;;;;;;;42.55;28.98;;;;;;;12.25;94.51;100033.94;1764049;81;20938;-91
2022/09/17 03:33:37;;;;;;;37.88;28.57;;;;;;;12.26;94.39;100037.39;1764349;80;20890;-92
2022/09/17 03:36:04;;;;;;;38.02;29.05;;;;;;;12.23;94.28;100039.30;1764162;81;20958;-92
2022/09/17 03:38:35;;;;;;;34.30;26.95;;;;;;;12.23;94.23;100035.84;1764384;81;20996;-91
2022/09/17 03:41:05;;;;;;;34.18;26.95;;;;;;;12.22;94.31;100036.78;1765732;81;21241;-91
2022/09/17 03:43:33;;;;;;;31.42;27.40;;;;;;;12.20;94.26;100033.42;1739895;81;20869;-90
2022/09/17 03:46:00;;;;;;;34.18;28.12;;;;;;;12.18;94.27;100026.13;1766120;81;20929;-91
2022/09/17 03:48:29;;;;;;;34.13;27.90;;;;;;;12.17;94.40;100026.62;1763969;81;21400;-92
2022/09/17 03:50:56;;;;;;;37.98;28.73;;;;;;;12.18;94.45;100024.81;1765172;81;20933;-92
2022/09/17 03:53:22;;;;;;;33.18;27.77;;;;;;;12.17;94.58;100018.73;1764341;81;21246;-92
2022/09/17 03:55:49;;;;;;;39.18;28.47;;;;;;;12.18;94.86;100015.62;1765413;81;20901;-88
2022/09/17 03:58:16;;;;;;;36.30;26.52;;;;;;;12.19;95.22;100019.45;1740657;81;20928;-91
2022/09/17 04:00:43;;;;;;;41.00;27.48;;;;;;;12.23;95.58;100023.53;1740666;81;20964;-91
2022/09/17 04:03:11;;;;;;;38.78;29.15;;;;;;;12.26;95.59;100015.88;1717057;82;21019;-90
2022/09/17 04:05:38;;;;;;;32.67;27.30;;;;;;;12.31;95.54;100018.15;1739359;82;21256;-91
2022/09/17 04:08:05;;;;;;;35.08;25.25;;;;;;;12.35;95.41;100023.53;1738111;82;20988;-91
2022/09/17 04:10:34;;;;;;;35.43;26.45;;;;;;;12.37;95.16;100025.09;1738549;82;20976;-92
2022/09/17 04:13:04;;;;;;;34.10;25.92;;;;;;;12.41;94.96;100023.07;1739468;82;21020;-93
2022/09/17 04:15:34;;;;;;;32.35;26.48;;;;;;;12.43;94.85;100021.99;1734733;82;20960;-92
2022/09/17 04:18:00;;;;;;;32.88;26.90;;;;;;;12.47;94.89;100025.20;1738971;82;22378;-91
2022/09/17 04:20:28;;;;;;;33.48;26.25;;;;;;;12.54;95.10;100026.87;1736468;82;20916;-93
2022/09/17 04:22:55;;;;;;;35.38;27.00;;;;;;;12.61;95.46;100031.56;1753672;80;20966;-91
2022/09/17 04:25:21;;;;;;;31.33;26.27;;;;;;;12.71;95.84;100029.03;1753710;81;20963;-92
2022/09/17 04:27:48;;;;;;;35.58;26.42;;;;;;;12.83;96.17;100031.20;1753512;80;21376;-92
2022/09/17 04:30:14;;;;;;;33.53;25.65;;;;;;;12.94;96.43;100033.82;1753432;80;21241;-92
2022/09/17 04:32:45;;;;;;;29.52;25.12;;;;;;;13.06;96.63;100033.31;1753540;81;20985;-92
2022/09/17 04:35:12;;;;;;;27.98;24.72;;;;;;;13.19;96.78;100043.22;1753524;81;20957;-91
2022/09/17 04:37:39;;;;;;;31.30;25.43;;;;;;;13.34;96.86;100052.18;1753357;80;20942;-90
2022/09/17 04:40:07;;;;;;;31.68;25.62;;;;;;;13.45;96.79;100042.47;1753404;80;21360;-89
2022/09/17 04:42:34;;;;;;;34.43;24.32;;;;;;;13.59;96.87;100046.61;1753415;80;21273;-91
2022/09/17 04:45:02;;;;;;;29.25;22.75;;;;;;;13.73;96.92;100056.00;1753218;80;20993;-90
2022/09/17 04:47:28;;;;;;;25.17;21.52;;;;;;;13.86;97.00;100051.88;1753409;80;21396;-92
2022/09/17 04:49:55;;;;;;;25.62;20.80;;;;;;;14.04;97.29;100048.19;1753309;80;21488;-91
2022/09/17 04:52:21;;;;;;;25.45;22.02;;;;;;;14.35;98.78;100044.30;1753414;80;20986;-91
2022/09/17 04:54:48;;;;;;;24.70;21.57;;;;;;;14.68;98.83;100043.23;1753494;80;21148;-92
2022/09/17 04:57:15;;;;;;;23.77;21.02;;;;;;;15.09;98.67;100032.99;1753465;81;20918;-91
2022/09/17 04:59:41;;;;;;;25.70;20.57;;;;;;;15.64;98.29;100027.72;1753434;80;21013;-91
2022/09/17 05:02:08;;;;;;;24.25;18.65;;;;;;;16.90;95.77;100030.59;1753437;81;20902;-90
2022/09/17 05:04:34;;;;;;;27.32;23.80;;;;;;;16.90;95.77;100030.59;1753522;81;20963;-90
2022/09/17 05:07:01;;;;;;;27.05;22.77;;;;;;;17.58;93.18;100040.73;1753409;81;21266;-92
2022/09/17 05:09:28;;;;;;;27.27;22.10;;;;;;;18.23;88.90;100047.11;1754219;80;20911;-90
2022/09/17 05:11:55;;;;;;;24.12;21.55;;;;;;;18.71;85.41;100044.88;1753663;80;20981;-91
2022/09/17 05:14:21;;;;;;;24.77;20.23;;;;;;;19.03;82.46;100053.02;1753457;80;21052;-91
2022/09/17 05:16:48;;;;;;;23.07;19.17;;;;;;;19.22;80.45;100043.92;1753602;81;20886;-91
2022/09/17 05:19:15;;;;;;;20.77;18.67;;;;;;;19.49;79.25;100045.97;1755421;81;21247;-91
2022/09/17 05:21:41;;;;;;;25.23;20.68;;;;;;;19.70;77.47;100038.03;1764031;80;20992;-90
2022/09/17 05:24:08;;;;;;;23.32;20.90;;;;;;;19.91;75.94;100053.52;1773256;81;20890;-91
2022/09/17 05:26:36;;;;;;;22.52;20.12;;;;;;;19.97;75.28;100059.52;1746256;81;20941;-90
2022/09/17 05:29:03;;;;;;;25.27;21.15;;;;;;;19.96;74.50;100058.66;1772559;80;20949;-92
2022/09/17 05:31:30;;;;;;;23.35;20.12;;;;;;;19.93;74.36;100062.17;1771774;80;22215;-91
2022/09/17 05:33:58;;;;;;;24.25;21.73;;;;;;;19.88;74.47;100064.00;1770820;81;21043;-93
2022/09/17 05:36:25;;;;;;;21.95;19.73;;;;;;;19.85;74.63;100074.95;1770649;80;20988;-90
2022/09/17 05:38:52;;;;;;;24.57;21.17;;;;;;;19.86;74.83;100076.64;1770757;80;20937;-93
2022/09/17 05:41:18;;;;;;;22.75;20.32;;;;;;;19.87;74.51;100083.11;1770653;80;21487;-90
2022/09/17 05:43:45;;;;;;;24.72;21.02;;;;;;;19.84;74.57;100084.78;1771435;81;21233;-91
2022/09/17 05:46:11;;;;;;;30.27;24.72;;;;;;;19.85;74.81;100085.13;1770913;81;20929;-91
2022/09/17 05:48:42;;;;;;;24.63;21.10;;;;;;;19.86;74.60;100081.96;1770987;80;20925;-92
2022/09/17 05:51:18;;;;;;;23.92;20.25;;;;;;;19.81;74.78;100082.46;1732712;82;20915;-92
2022/09/17 05:53:44;;;;;;;23.12;20.72;;;;;;;19.78;74.94;100080.62;1732333;82;20964;-90
2022/09/17 05:56:12;;;;;;;25.88;21.15;;;;;;;19.76;75.04;100078.61;1732131;82;21286;-90
2022/09/17 05:58:40;;;;;;;23.62;21.23;;;;;;;19.74;75.26;100081.44;1731968;82;20914;-91
2022/09/17 06:01:06;;;;;;;23.50;21.10;;;;;;;19.83;75.81;100085.79;1732142;82;21443;-91
2022/09/17 06:03:33;;;;;;;23.12;19.37;;;;;;;19.92;75.40;100075.98;1731955;82;21012;-90
2022/09/17 06:06:00;;;;;;;29.92;19.82;;;;;;;19.97;74.21;100086.95;1732135;82;20918;-92
2022/09/17 06:08:27;;;;;;;21.73;19.42;;;;;;;20.04;73.40;100091.94;1732129;82;21160;-91
2022/09/17 06:10:54;;;;;;;21.20;18.20;;;;;;;20.12;72.62;100093.78;1731975;82;21024;-91
2022/09/17 06:13:21;;;;;;;22.25;19.95;;;;;;;20.17;71.85;100088.78;1732128;82;21162;-92
2022/09/17 06:15:51;;;;;;;22.25;19.32;;;;;;;20.23;71.45;100089.45;1731948;82;20934;-93
2022/09/17 06:18:18;;;;;;;21.68;19.32;;;;;;;20.32;71.05;100086.75;1732401;82;20914;-91
2022/09/17 06:21:00;;;;;;;20.48;18.32;;;;;;;20.46;70.68;100086.09;1732665;82;21148;-88
2022/09/17 06:23:34;;;;;;;20.05;18.10;;;;;;;20.81;70.96;100089.34;1733140;82;21333;-89
2022/09/17 06:26:01;;;;;;;19.48;17.37;;;;;;;21.19;70.30;100088.18;1732916;82;20890;-92
2022/09/17 06:28:29;;;;;;;20.40;18.50;;;;;;;21.65;69.06;100081.61;1741140;81;20937;-90
2022/09/17 06:31:01;;;;;;;21.52;19.05;;;;;;;22.07;67.61;100089.64;1771636;80;21395;-91
2022/09/17 06:33:31;;;;;;;27.40;20.95;;;;;;;22.31;66.46;100084.62;1770801;81;21927;-91
2022/09/17 06:36:02;;;;;;;22.93;20.27;;;;;;;22.56;65.63;100087.35;1770722;80;20921;-92
2022/09/17 06:38:32;;;;;;;24.72;20.08;;;;;;;22.88;64.59;100082.67;1770683;81;20890;-92
2022/09/17 06:40:58;;;;;;;22.60;18.12;;;;;;;23.28;63.11;100083.20;1770659;80;20929;-92
2022/09/17 06:43:25;;;;;;;30.10;20.70;;;;;;;23.54;61.86;100083.16;1745025;81;21407;-94
2022/09/17 06:45:58;;;;;;;32.48;18.32;;;;;;;23.68;60.80;100081.44;1772886;80;21185;-92
2022/09/17 06:48:25;;;;;;;23.77;17.85;;;;;;;23.69;59.00;100086.61;1772536;79;21416;-91
2022/09/17 06:50:53;;;;;;;26.90;17.40;;;;;;;23.65;59.17;100079.16;1771936;80;20921;-91
2022/09/17 06:53:21;;;;;;;24.55;17.35;;;;;;;23.66;59.24;100082.98;1771210;80;20937;-91
2022/09/17 06:55:48;;;;;;;23.27;18.52;;;;;;;23.69;59.17;100083.93;1770954;80;20842;-91
2022/09/17 06:58:14;;;;;;;22.52;17.02;;;;;;;23.72;59.50;100076.02;1770735;80;21836;-91
2022/09/17 07:00:41;;;;;;;22.45;17.73;;;;;;;23.72;58.90;100066.16;1770837;80;21028;-92
2022/09/17 07:03:08;;;;;;;21.95;18.32;;;;;;;23.72;59.20;100069.33;1770756;81;20925;-91
2022/09/17 07:05:35;;;;;;;19.12;17.17;;;;;;;23.73;58.94;100062.97;1770861;80;20949;-91
2022/09/17 07:08:04;;;;;;;22.60;20.60;;;;;;;23.71;57.42;100065.01;1770883;80;21498;-92
2022/09/17 07:10:32;;;;;;;12.65;11.45;;;;;;;23.63;57.08;100064.61;1771153;80;20981;-92
2022/09/17 07:12:59;;;;;;;11.93;10.85;;;;;;;23.49;57.16;100055.62;1771104;80;20945;-92
2022/09/17 07:15:26;;;;;;;19.30;17.27;;;;;;;23.33;57.22;100052.68;1773860;81;20951;-91
2022/09/17 07:17:52;;;;;;;14.60;13.20;;;;;;;23.18;57.54;100066.09;1773129;80;21493;-92
2022/09/17 07:20:19;;;;;;;13.22;12.03;;;;;;;23.02;58.01;100068.16;1771189;81;20901;-92
2022/09/17 07:22:54;;;;;;;13.38;11.90;;;;;;;22.86;58.57;100071.84;1766486;80;21143;-94
2022/09/17 07:25:21;;;;;;;10.05;9.20;;;;;;;22.73;59.04;100073.31;1744028;80;20882;-92
2022/09/17 07:27:48;;;;;;;12.50;11.20;;;;;;;22.63;59.69;100070.59;1764275;81;20930;-93
2022/09/17 07:30:14;;;;;;;12.82;11.55;;;;;;;22.61;59.97;100082.82;1764540;80;20902;-92
2022/09/17 07:32:41;;;;;;;11.40;10.35;;;;;;;22.55;59.83;100084.88;1738721;82;21008;-93
2022/09/17 07:35:08;;;;;;;12.55;11.15;;;;;;;22.49;59.87;100090.44;1739631;81;21285;-92
2022/09/17 07:37:35;;;;;;;11.48;9.98;;;;;;;22.40;59.91;100087.53;1740735;81;20920;-90
2022/09/17 07:40:05;;;;;;;11.15;10.13;;;;;;;22.40;60.30;100091.54;1740357;82;20937;-91
2022/09/17 07:42:33;;;;;;;11.20;10.03;;;;;;;22.42;59.85;100088.18;1737677;82;21012;-92
2022/09/17 07:45:00;;;;;;;10.85;9.28;;;;;;;22.44;59.70;100079.48;1738010;82;20900;-92
2022/09/17 07:47:26;;;;;;;10.82;9.85;;;;;;;22.43;59.60;100080.98;1738059;82;21150;-92
2022/09/17 07:49:53;;;;;;;12.00;10.80;;;;;;;22.39;59.47;100080.55;1737877;82;20886;-93
2022/09/17 07:52:19;;;;;;;13.65;12.45;;;;;;;22.30;59.83;100069.62;1737807;82;20916;-92
2022/09/17 07:54:45;;;;;;;12.03;10.93;;;;;;;22.24;60.07;100071.67;1737728;82;20936;-91
2022/09/17 07:57:12;;;;;;;14.38;12.93;;;;;;;22.13;60.57;100070.23;1737899;82;21548;-90
2022/09/17 07:59:39;;;;;;;12.65;11.45;;;;;;;22.08;60.90;100067.28;1737800;82;21106;-91
2022/09/17 08:02:13;;;;;;;14.20;11.30;;;;;;;22.05;61.36;100075.64;1737916;82;20901;-91
2022/09/17 08:04:43;;;;;;;12.15;11.03;;;;;;;22.06;61.77;100075.47;1738455;82;20873;-93
2022/09/17 08:07:13;;;;;;;11.75;10.75;;;;;;;22.09;61.92;100080.95;1738466;82;20997;-92
2022/09/17 08:09:40;;;;;;;13.30;12.07;;;;;;;22.10;62.05;100074.09;1737460;82;20889;-91
2022/09/17 08:13:31;;;;;;;12.63;11.43;;;;;;;22.22;61.93;100076.36;1842270;77;23261;-93
2022/09/17 08:16:01;;;;;;;15.20;11.97;;;;;;;22.21;61.91;100080.85;1803595;77;20903;-91
2022/09/17 08:18:28;;;;;;;11.25;10.25;;;;;;;22.25;62.11;100078.66;1803016;77;21200;-89
2022/09/17 08:20:59;;;;;;;10.45;9.45;;;;;;;22.29;62.11;100075.95;1802152;79;20888;-91
2022/09/17 08:23:27;;;;;;;13.32;11.15;;;;;;;22.33;62.10;100075.41;1802015;79;20945;-88
2022/09/17 08:25:55;;;;;;;13.43;9.78;;;;;;;22.34;61.13;100077.56;1801421;79;20927;-91
2022/09/17 08:28:26;;;;;;;10.88;9.60;;;;;;;22.31;60.22;100076.60;1801154;79;20982;-91
2022/09/17 08:31:04;;;;;;;10.38;9.48;;;;;;;22.24;60.60;100069.82;1802206;78;21124;-90
2022/09/17 08:33:37;;;;;;;12.45;9.20;;;;;;;22.22;60.76;100061.67;1803240;77;21004;-93
2022/09/17 08:36:09;;;;;;;11.60;10.58;;;;;;;22.23;60.84;100060.16;1783385;78;20848;-88
2022/09/17 08:38:37;;;;;;;10.85;9.88;;;;;;;22.21;60.61;100060.81;1802319;79;20983;-92
2022/09/17 08:41:32;;;;;;;9.88;8.53;;;;;;;22.19;61.20;100049.48;1801519;78;20876;-92
2022/09/17 08:44:10;;;;;;;11.03;8.98;;;;;;;22.18;61.25;100045.14;1801134;79;21135;-94
2022/09/17 08:46:59;;;;;;;11.20;10.10;;;;;;;22.17;61.24;100044.83;1800526;78;21413;-91
2022/09/17 08:49:36;;;;;;;13.18;10.53;;;;;;;22.14;60.82;100049.17;1798556;79;20933;-91
2022/09/17 08:52:57;;;;;;;10.55;9.55;;;;;;;22.13;61.49;100048.36;1801518;79;20895;-93
2022/09/17 08:55:58;;;;;;;10.65;8.88;;;;;;;22.20;61.81;100052.46;1830554;77;20866;-92
2022/09/17 08:58:34;;;;;;;14.40;11.65;;;;;;;22.31;61.32;100051.22;1728488;82;21263;-94
2022/09/17 09:01:37;;;;;;;9.90;8.88;;;;;;;22.41;60.36;100056.29;1728125;82;20890;-93
2022/09/17 09:04:21;;;;;;;11.78;7.25;;;;;;;22.47;60.59;100050.22;1728655;83;21579;-91
2022/09/17 09:06:56;;;;;;;9.15;8.25;;;;;;;22.49;59.28;100051.69;1728109;82;20930;-93
2022/09/17 09:09:25;;;;;;;8.18;7.37;;;;;;;22.48;59.24;100054.57;1728368;82;21061;-92
2022/09/17 09:11:57;;;;;;;7.67;6.92;;;;;;;22.47;59.97;100053.72;1728240;82;21287;-92
2022/09/17 09:14:34;;;;;;;9.73;7.43;;;;;;;22.46;59.99;100052.58;1728284;82;20949;-92
2022/09/17 09:17:08;;;;;;;7.80;7.10;;;;;;;22.43;60.24;100045.73;1729011;83;21345;-93
2022/09/17 09:19:43;;;;;;;7.72;7.03;;;;;;;22.40;59.39;100043.96;1729199;83;20982;-89
2022/09/17 09:22:21;;;;;;;10.13;7.33;;;;;;;22.34;59.58;100034.82;1729224;83;20890;-90
2022/09/17 09:25:22;;;;;;;8.88;7.35;;;;;;;22.30;59.50;100037.05;1727909;81;21168;-93
2022/09/17 09:28:37;;;;;;;7.80;6.50;;;;;;;22.26;59.19;100037.59;1728192;83;20890;-88
2022/09/17 09:31:33;;;;;;;7.67;6.75;;;;;;;22.19;58.97;100037.47;1728108;82;20959;-92
2022/09/17 09:34:01;;;;;;;9.58;6.62;;;;;;;22.13;58.77;100033.66;1704862;81;20931;-91
2022/09/17 09:36:28;;;;;;;11.33;6.03;;;;;;;22.16;59.25;100036.47;1818646;78;20918;-91
2022/09/17 09:39:02;;;;;;;8.35;5.75;;;;;;;22.24;59.62;100031.09;1831816;78;21217;-89
2022/09/17 09:42:04;;;;;;;7.28;5.85;;;;;;;22.30;60.04;100026.36;1830107;77;21200;-96
2022/09/17 09:44:31;;;;;;;6.10;5.60;;;;;;;22.38;59.20;100024.61;1830093;78;20910;-91
2022/09/17 09:47:31;;;;;;;6.50;5.67;;;;;;;22.39;57.52;100024.44;1829978;78;20941;-92
2022/09/17 09:50:30;;;;;;;6.40;5.85;;;;;;;22.35;57.54;100025.81;1762908;78;21169;-93
2022/09/17 09:53:29;;;;;;;;;;;;;;;;;;;;;
2022/09/17 09:56:18;;;;;;;20.37;18.40;;;;;;;22.25;57.17;100051.95;1764995;79;21515;-91
2022/09/17 09:58:44;;;;;;;7.08;6.37;;;;;;;22.21;57.26;100050.13;1664266;85;20887;-91
2022/09/17 10:01:19;;;;;;;6.47;5.83;;;;;;;22.16;57.05;100045.82;1718704;83;21471;-92
2022/09/17 10:03:48;;;;;;;6.53;5.87;;;;;;;22.08;57.65;100032.56;1722499;83;20934;-93
2022/09/17 10:06:15;;;;;;;7.00;6.35;;;;;;;22.04;57.54;100033.94;1718704;83;21835;-91
2022/09/17 10:09:02;;;;;;;7.83;6.12;;;;;;;21.99;57.81;100035.81;1722638;83;20856;-91
2022/09/17 10:11:32;;;;;;;7.12;6.20;;;;;;;21.97;57.79;100031.67;1718263;83;21007;-93
2022/09/17 10:14:26;;;;;;;8.25;6.17;;;;;;;21.89;57.92;100032.55;1722046;83;21057;-91
2022/09/17 10:17:20;;;;;;;6.83;6.22;;;;;;;21.86;58.34;100028.92;1718825;83;21070;-91
2022/09/17 10:20:07;;;;;;;7.07;6.10;;;;;;;21.83;58.42;100023.44;1722550;83;21818;-92
2022/09/17 10:22:38;;;;;;;8.73;7.22;;;;;;;21.80;58.41;100020.29;1718318;83;21446;-93
2022/09/17 10:25:09;;;;;;;7.60;6.90;;;;;;;21.79;58.85;100015.95;1718468;83;20891;-91
2022/09/17 10:27:35;;;;;;;7.78;6.97;;;;;;;21.77;59.05;100016.66;1734376;82;20873;-92
2022/09/17 10:30:11;;;;;;;8.50;6.97;;;;;;;21.72;59.40;100019.36;1738664;82;20891;-93
2022/09/17 10:32:42;;;;;;;7.10;6.37;;;;;;;21.70;59.60;100019.22;1753012;82;21324;-91
2022/09/17 10:35:21;;;;;;;7.90;7.20;;;;;;;21.62;60.52;100004.08;1753143;82;20966;-92
2022/09/17 10:37:49;;;;;;;7.50;6.90;;;;;;;21.57;60.75;100008.31;1755167;81;20841;-90
2022/09/17 10:40:27;;;;;;;8.90;7.40;;;;;;;21.49;61.26;100015.34;1754369;81;20848;-91
2022/09/17 10:43:15;;;;;;;9.15;8.15;;;;;;;21.42;62.12;100019.73;1767639;81;20843;-91
2022/09/17 10:45:58;;;;;;;8.83;8.03;;;;;;;21.35;64.65;100024.61;1820036;78;21877;-93
2022/09/17 10:48:36;;;;;;;11.78;8.18;;;;;;;21.27;66.66;100030.81;1820022;78;20993;-92
2022/09/17 10:51:05;;;;;;;12.10;10.93;;;;;;;21.20;68.18;100034.68;1820256;78;20922;-93
2022/09/17 10:53:32;;;;;;;13.30;10.95;;;;;;;21.15;69.72;100048.23;1797543;78;20973;-92
2022/09/17 10:56:19;;;;;;;12.05;10.75;;;;;;;21.08;71.43;100074.76;1759420;81;21008;-94
2022/09/17 10:59:23;;;;;;;11.60;9.60;;;;;;;20.98;72.42;100070.95;1783612;79;21296;-91
2022/09/17 11:02:24;;;;;;;12.15;11.03;;;;;;;20.86;73.26;100049.69;1762778;81;20985;-93
2022/09/17 11:05:12;;;;;;;12.80;9.63;;;;;;;20.59;74.64;100000.34;1762312;80;20849;-92
2022/09/17 11:07:52;;;;;;;11.22;10.23;;;;;;;20.58;75.59;100015.47;1762322;80;20975;-94
2022/09/17 11:10:50;;;;;;;11.48;10.38;;;;;;;20.51;76.54;100017.14;1762723;80;20998;-93
2022/09/17 11:13:49;;;;;;;11.80;10.72;;;;;;;20.45;77.20;100009.83;1761797;80;21209;-93
2022/09/17 11:16:45;;;;;;;12.35;11.30;;;;;;;20.37;78.28;100010.69;1762020;80;20935;-91
2022/09/17 11:19:18;;;;;;;14.25;11.63;;;;;;;20.33;79.24;100013.36;1822508;78;20816;-92
2022/09/17 11:21:48;;;;;;;13.48;11.25;;;;;;;20.31;80.27;100011.36;1825674;78;20800;-93
2022/09/17 11:24:25;;;;;;;12.23;11.20;;;;;;;20.26;80.91;99995.08;1825790;78;20930;-90
2022/09/17 11:27:21;;;;;;;14.53;12.98;;;;;;;20.26;81.34;99990.58;1825908;78;22821;-94
2022/09/17 11:30:04;;;;;;;13.98;12.53;;;;;;;20.25;81.56;99990.73;1760084;80;20998;-93
2022/09/17 11:32:53;;;;;;;15.23;13.20;;;;;;;20.24;81.53;99976.60;1757173;80;21221;-92
2022/09/17 11:35:34;;;;;;;14.43;13.03;;;;;;;20.24;80.98;99965.95;1746582;81;21405;-90
2022/09/17 11:38:09;;;;;;;14.23;12.75;;;;;;;20.25;79.36;99966.77;1761439;81;20955;-96
2022/09/17 11:40:44;;;;;;;17.67;15.83;;;;;;;20.29;78.79;99972.09;1760165;81;21562;-93
2022/09/17 11:43:22;;;;;;;16.75;15.18;;;;;;;20.33;79.13;99975.25;1815123;78;20926;-91
2022/09/17 11:46:18;;;;;;;15.95;14.35;;;;;;;20.37;79.72;99973.41;1825172;78;20899;-93
2022/09/17 11:48:56;;;;;;;20.70;14.85;;;;;;;20.43;80.61;99966.07;1823941;78;20891;-92